sensor_id;sensor_type;location;lat;lon;timestamp;P1;durP1;ratioP1;P2;durP2;ratioP2
43256;SDS011;28860;43.212;27.934;2023-07-31T00:00:35;8.82;;;2.50;;
43256;SDS011;28860;43.212;27.934;2023-07-31T00:03:01;8.32;;;3.20;;
43256;SDS011;28860;43.212;27.934;2023-07-31T00:05:26;11.40;;;2.78;;
43256;SDS011;28860;43.212;27.934;2023-07-31T00:07:52;6.00;;;2.40;;
43256;SDS011;28860;43.212;27.934;2023-07-31T00:10:19;3.80;;;2.25;;
43256;SDS011;28860;43.212;27.934;2023-07-31T00:12:44;6.45;;;2.55;;
43256;SDS011;28860;43.212;27.934;2023-07-31T00:15:10;9.27;;;2.95;;
43256;SDS011;28860;43.212;27.934;2023-07-31T00:17:36;5.32;;;2.47;;
43256;SDS011;28860;43.212;27.934;2023-07-31T00:20:02;4.18;;;2.50;;
43256;SDS011;28860;43.212;27.934;2023-07-31T00:22:28;5.75;;;2.30;;
43256;SDS011;28860;43.212;27.934;2023-07-31T00:24:55;4.32;;;2.10;;
43256;SDS011;28860;43.212;27.934;2023-07-31T00:27:21;5.90;;;2.35;;
43256;SDS011;28860;43.212;27.934;2023-07-31T00:29:46;5.63;;;2.30;;
43256;SDS011;28860;43.212;27.934;2023-07-31T00:32:15;4.13;;;2.33;;
43256;SDS011;28860;43.212;27.934;2023-07-31T00:34:41;8.15;;;3.10;;
43256;SDS011;28860;43.212;27.934;2023-07-31T00:37:09;5.13;;;2.22;;
43256;SDS011;28860;43.212;27.934;2023-07-31T00:39:35;7.35;;;2.45;;
43256;SDS011;28860;43.212;27.934;2023-07-31T00:42:01;7.03;;;2.72;;
43256;SDS011;28860;43.212;27.934;2023-07-31T00:44:27;3.80;;;2.65;;
43256;SDS011;28860;43.212;27.934;2023-07-31T00:46:55;6.03;;;2.40;;
43256;SDS011;28860;43.212;27.934;2023-07-31T00:49:22;5.63;;;2.70;;
43256;SDS011;28860;43.212;27.934;2023-07-31T00:51:50;5.57;;;2.80;;
43256;SDS011;28860;43.212;27.934;2023-07-31T00:54:15;7.35;;;2.55;;
43256;SDS011;28860;43.212;27.934;2023-07-31T00:56:41;3.83;;;2.60;;
43256;SDS011;28860;43.212;27.934;2023-07-31T00:59:09;5.68;;;2.40;;
43256;SDS011;28860;43.212;27.934;2023-07-31T01:01:35;7.95;;;2.47;;
43256;SDS011;28860;43.212;27.934;2023-07-31T01:04:01;7.65;;;2.70;;
43256;SDS011;28860;43.212;27.934;2023-07-31T01:12:02;6.95;;;3.00;;
43256;SDS011;28860;43.212;27.934;2023-07-31T01:14:29;10.70;;;2.92;;
43256;SDS011;28860;43.212;27.934;2023-07-31T01:16:55;13.40;;;2.75;;
43256;SDS011;28860;43.212;27.934;2023-07-31T01:19:24;6.88;;;2.60;;
43256;SDS011;28860;43.212;27.934;2023-07-31T01:22:10;9.05;;;2.65;;
43256;SDS011;28860;43.212;27.934;2023-07-31T01:27:23;4.78;;;2.60;;
43256;SDS011;28860;43.212;27.934;2023-07-31T01:32:35;7.25;;;2.50;;
43256;SDS011;28860;43.212;27.934;2023-07-31T01:35:04;6.57;;;2.78;;
43256;SDS011;28860;43.212;27.934;2023-07-31T01:37:31;9.95;;;2.65;;
43256;SDS011;28860;43.212;27.934;2023-07-31T01:39:56;6.53;;;3.50;;
43256;SDS011;28860;43.212;27.934;2023-07-31T01:42:22;9.77;;;3.58;;
43256;SDS011;28860;43.212;27.934;2023-07-31T01:44:48;5.82;;;2.88;;
43256;SDS011;28860;43.212;27.934;2023-07-31T01:47:13;7.55;;;2.60;;
43256;SDS011;28860;43.212;27.934;2023-07-31T01:49:42;7.22;;;2.70;;
43256;SDS011;28860;43.212;27.934;2023-07-31T01:52:07;4.53;;;2.63;;
43256;SDS011;28860;43.212;27.934;2023-07-31T01:54:33;7.22;;;3.38;;
43256;SDS011;28860;43.212;27.934;2023-07-31T01:56:59;4.40;;;2.47;;
43256;SDS011;28860;43.212;27.934;2023-07-31T01:59:24;6.95;;;2.45;;
43256;SDS011;28860;43.212;27.934;2023-07-31T02:01:50;7.63;;;2.92;;
43256;SDS011;28860;43.212;27.934;2023-07-31T02:04:16;4.68;;;2.40;;
43256;SDS011;28860;43.212;27.934;2023-07-31T02:06:44;8.60;;;3.10;;
43256;SDS011;28860;43.212;27.934;2023-07-31T02:09:10;8.73;;;3.00;;
43256;SDS011;28860;43.212;27.934;2023-07-31T02:11:35;10.40;;;3.22;;
43256;SDS011;28860;43.212;27.934;2023-07-31T02:14:01;9.38;;;3.30;;
43256;SDS011;28860;43.212;27.934;2023-07-31T02:16:27;5.13;;;3.22;;
43256;SDS011;28860;43.212;27.934;2023-07-31T02:18:52;7.10;;;3.88;;
43256;SDS011;28860;43.212;27.934;2023-07-31T02:21:18;8.88;;;3.72;;
43256;SDS011;28860;43.212;27.934;2023-07-31T02:23:44;10.48;;;3.63;;
43256;SDS011;28860;43.212;27.934;2023-07-31T02:26:09;8.55;;;3.25;;
43256;SDS011;28860;43.212;27.934;2023-07-31T02:28:35;5.35;;;3.53;;
43256;SDS011;28860;43.212;27.934;2023-07-31T02:31:03;10.30;;;3.70;;
43256;SDS011;28860;43.212;27.934;2023-07-31T02:33:29;7.20;;;3.58;;
43256;SDS011;28860;43.212;27.934;2023-07-31T02:35:55;5.35;;;3.08;;
43256;SDS011;28860;43.212;27.934;2023-07-31T02:38:20;7.40;;;3.53;;
43256;SDS011;28860;43.212;27.934;2023-07-31T02:40:46;7.88;;;3.25;;
43256;SDS011;28860;43.212;27.934;2023-07-31T02:43:13;8.80;;;3.40;;
43256;SDS011;28860;43.212;27.934;2023-07-31T02:45:41;7.10;;;2.95;;
43256;SDS011;28860;43.212;27.934;2023-07-31T02:48:06;8.52;;;3.13;;
43256;SDS011;28860;43.212;27.934;2023-07-31T02:50:32;9.88;;;3.42;;
43256;SDS011;28860;43.212;27.934;2023-07-31T02:52:58;6.25;;;2.80;;
43256;SDS011;28860;43.212;27.934;2023-07-31T02:55:24;7.53;;;3.20;;
43256;SDS011;28860;43.212;27.934;2023-07-31T02:57:49;6.10;;;2.60;;
43256;SDS011;28860;43.212;27.934;2023-07-31T03:00:17;8.13;;;2.75;;
43256;SDS011;28860;43.212;27.934;2023-07-31T03:02:45;10.07;;;3.00;;
43256;SDS011;28860;43.212;27.934;2023-07-31T03:05:11;5.88;;;2.30;;
43256;SDS011;28860;43.212;27.934;2023-07-31T03:07:39;10.02;;;2.88;;
43256;SDS011;28860;43.212;27.934;2023-07-31T03:10:05;5.72;;;2.70;;
43256;SDS011;28860;43.212;27.934;2023-07-31T03:12:31;10.35;;;2.80;;
43256;SDS011;28860;43.212;27.934;2023-07-31T03:14:57;12.98;;;3.30;;
43256;SDS011;28860;43.212;27.934;2023-07-31T03:17:28;6.72;;;3.00;;
43256;SDS011;28860;43.212;27.934;2023-07-31T03:19:53;9.63;;;3.50;;
43256;SDS011;28860;43.212;27.934;2023-07-31T03:22:19;8.45;;;3.53;;
43256;SDS011;28860;43.212;27.934;2023-07-31T03:24:45;8.50;;;3.92;;
43256;SDS011;28860;43.212;27.934;2023-07-31T03:27:10;14.60;;;3.50;;
43256;SDS011;28860;43.212;27.934;2023-07-31T03:29:36;7.18;;;3.20;;
43256;SDS011;28860;43.212;27.934;2023-07-31T03:32:02;7.97;;;3.30;;
43256;SDS011;28860;43.212;27.934;2023-07-31T03:34:27;11.40;;;3.45;;
43256;SDS011;28860;43.212;27.934;2023-07-31T03:36:53;6.35;;;2.80;;
43256;SDS011;28860;43.212;27.934;2023-07-31T03:39:19;11.00;;;3.67;;
43256;SDS011;28860;43.212;27.934;2023-07-31T03:41:44;6.90;;;3.40;;
43256;SDS011;28860;43.212;27.934;2023-07-31T03:44:10;10.20;;;3.40;;
43256;SDS011;28860;43.212;27.934;2023-07-31T03:46:36;8.32;;;3.10;;
43256;SDS011;28860;43.212;27.934;2023-07-31T03:49:04;12.05;;;3.33;;
43256;SDS011;28860;43.212;27.934;2023-07-31T03:51:30;6.05;;;2.92;;
43256;SDS011;28860;43.212;27.934;2023-07-31T03:53:55;7.25;;;3.17;;
43256;SDS011;28860;43.212;27.934;2023-07-31T03:56:21;6.43;;;3.00;;
43256;SDS011;28860;43.212;27.934;2023-07-31T03:58:47;5.55;;;2.90;;
43256;SDS011;28860;43.212;27.934;2023-07-31T04:01:13;8.95;;;3.58;;
43256;SDS011;28860;43.212;27.934;2023-07-31T04:03:38;9.63;;;4.45;;
43256;SDS011;28860;43.212;27.934;2023-07-31T04:06:04;15.38;;;6.07;;
43256;SDS011;28860;43.212;27.934;2023-07-31T04:08:32;14.63;;;6.32;;
43256;SDS011;28860;43.212;27.934;2023-07-31T04:10:57;13.30;;;6.32;;
43256;SDS011;28860;43.212;27.934;2023-07-31T04:13:23;16.95;;;7.50;;
43256;SDS011;28860;43.212;27.934;2023-07-31T04:15:49;30.27;;;8.30;;
43256;SDS011;28860;43.212;27.934;2023-07-31T04:18:21;16.30;;;8.88;;
43256;SDS011;28860;43.212;27.934;2023-07-31T04:20:47;21.05;;;7.97;;
43256;SDS011;28860;43.212;27.934;2023-07-31T04:23:13;16.25;;;8.00;;
43256;SDS011;28860;43.212;27.934;2023-07-31T04:25:38;14.65;;;6.85;;
43256;SDS011;28860;43.212;27.934;2023-07-31T04:28:04;18.00;;;6.65;;
43256;SDS011;28860;43.212;27.934;2023-07-31T04:30:33;15.23;;;6.82;;
43256;SDS011;28860;43.212;27.934;2023-07-31T04:32:58;13.18;;;6.28;;
43256;SDS011;28860;43.212;27.934;2023-07-31T04:35:26;19.88;;;6.68;;
43256;SDS011;28860;43.212;27.934;2023-07-31T04:37:55;18.10;;;5.88;;
43256;SDS011;28860;43.212;27.934;2023-07-31T04:40:21;11.10;;;5.63;;
43256;SDS011;28860;43.212;27.934;2023-07-31T04:42:46;16.83;;;5.75;;
43256;SDS011;28860;43.212;27.934;2023-07-31T04:45:12;14.65;;;5.25;;
43256;SDS011;28860;43.212;27.934;2023-07-31T04:47:38;11.07;;;4.57;;
43256;SDS011;28860;43.212;27.934;2023-07-31T04:50:04;12.13;;;4.95;;
43256;SDS011;28860;43.212;27.934;2023-07-31T04:52:30;14.65;;;5.07;;
43256;SDS011;28860;43.212;27.934;2023-07-31T04:54:55;14.30;;;6.07;;
43256;SDS011;28860;43.212;27.934;2023-07-31T04:57:21;15.55;;;5.32;;
43256;SDS011;28860;43.212;27.934;2023-07-31T04:59:49;13.75;;;4.68;;
43256;SDS011;28860;43.212;27.934;2023-07-31T05:02:14;15.10;;;4.97;;
43256;SDS011;28860;43.212;27.934;2023-07-31T05:04:40;10.73;;;5.10;;
43256;SDS011;28860;43.212;27.934;2023-07-31T05:07:06;15.13;;;4.82;;
43256;SDS011;28860;43.212;27.934;2023-07-31T05:09:35;11.90;;;5.10;;
43256;SDS011;28860;43.212;27.934;2023-07-31T05:12:01;10.13;;;5.18;;
43256;SDS011;28860;43.212;27.934;2023-07-31T05:14:26;12.20;;;5.30;;
43256;SDS011;28860;43.212;27.934;2023-07-31T05:16:52;11.38;;;4.63;;
43256;SDS011;28860;43.212;27.934;2023-07-31T05:19:18;13.60;;;5.38;;
43256;SDS011;28860;43.212;27.934;2023-07-31T05:21:44;15.30;;;4.10;;
43256;SDS011;28860;43.212;27.934;2023-07-31T05:24:10;11.95;;;3.55;;
43256;SDS011;28860;43.212;27.934;2023-07-31T05:26:36;11.77;;;3.53;;
43256;SDS011;28860;43.212;27.934;2023-07-31T05:29:03;10.23;;;3.70;;
43256;SDS011;28860;43.212;27.934;2023-07-31T05:31:29;17.27;;;3.90;;
43256;SDS011;28860;43.212;27.934;2023-07-31T05:33:58;9.63;;;3.85;;
43256;SDS011;28860;43.212;27.934;2023-07-31T05:36:23;9.90;;;4.30;;
43256;SDS011;28860;43.212;27.934;2023-07-31T05:38:52;12.75;;;3.75;;
43256;SDS011;28860;43.212;27.934;2023-07-31T05:41:18;8.93;;;3.42;;
43256;SDS011;28860;43.212;27.934;2023-07-31T05:43:43;15.82;;;4.63;;
43256;SDS011;28860;43.212;27.934;2023-07-31T05:46:09;9.55;;;4.22;;
43256;SDS011;28860;43.212;27.934;2023-07-31T05:48:39;11.13;;;4.55;;
43256;SDS011;28860;43.212;27.934;2023-07-31T05:51:05;8.05;;;3.92;;
43256;SDS011;28860;43.212;27.934;2023-07-31T05:53:33;10.50;;;3.78;;
43256;SDS011;28860;43.212;27.934;2023-07-31T05:56:03;6.03;;;3.47;;
43256;SDS011;28860;43.212;27.934;2023-07-31T05:58:31;11.18;;;3.15;;
43256;SDS011;28860;43.212;27.934;2023-07-31T06:00:57;13.52;;;3.38;;
43256;SDS011;28860;43.212;27.934;2023-07-31T06:03:25;7.97;;;3.53;;
43256;SDS011;28860;43.212;27.934;2023-07-31T06:05:51;6.35;;;2.67;;
43256;SDS011;28860;43.212;27.934;2023-07-31T06:08:16;10.52;;;3.20;;
43256;SDS011;28860;43.212;27.934;2023-07-31T06:10:45;8.10;;;3.10;;
43256;SDS011;28860;43.212;27.934;2023-07-31T06:13:10;9.70;;;3.20;;
43256;SDS011;28860;43.212;27.934;2023-07-31T06:15:37;8.48;;;3.22;;
43256;SDS011;28860;43.212;27.934;2023-07-31T06:18:03;10.88;;;3.30;;
43256;SDS011;28860;43.212;27.934;2023-07-31T06:20:29;13.85;;;3.72;;
43256;SDS011;28860;43.212;27.934;2023-07-31T06:23:00;16.02;;;3.97;;
43256;SDS011;28860;43.212;27.934;2023-07-31T06:25:26;8.40;;;4.03;;
43256;SDS011;28860;43.212;27.934;2023-07-31T06:27:51;9.90;;;4.10;;
43256;SDS011;28860;43.212;27.934;2023-07-31T06:30:17;16.67;;;3.85;;
43256;SDS011;28860;43.212;27.934;2023-07-31T06:32:42;15.02;;;4.55;;
43256;SDS011;28860;43.212;27.934;2023-07-31T06:35:08;11.23;;;4.22;;
43256;SDS011;28860;43.212;27.934;2023-07-31T06:37:34;6.68;;;3.75;;
43256;SDS011;28860;43.212;27.934;2023-07-31T06:39:59;12.68;;;5.15;;
43256;SDS011;28860;43.212;27.934;2023-07-31T06:42:25;18.55;;;4.25;;
43256;SDS011;28860;43.212;27.934;2023-07-31T06:44:53;17.88;;;5.07;;
43256;SDS011;28860;43.212;27.934;2023-07-31T06:47:21;10.10;;;4.47;;
43256;SDS011;28860;43.212;27.934;2023-07-31T06:49:49;12.15;;;4.68;;
43256;SDS011;28860;43.212;27.934;2023-07-31T06:52:14;14.02;;;4.35;;
43256;SDS011;28860;43.212;27.934;2023-07-31T06:54:40;12.10;;;4.72;;
43256;SDS011;28860;43.212;27.934;2023-07-31T06:57:06;11.98;;;5.65;;
43256;SDS011;28860;43.212;27.934;2023-07-31T06:59:34;11.52;;;6.15;;
43256;SDS011;28860;43.212;27.934;2023-07-31T07:02:00;9.00;;;5.20;;
43256;SDS011;28860;43.212;27.934;2023-07-31T07:04:28;14.10;;;5.38;;
43256;SDS011;28860;43.212;27.934;2023-07-31T07:06:57;12.40;;;5.10;;
43256;SDS011;28860;43.212;27.934;2023-07-31T07:09:23;10.52;;;4.45;;
43256;SDS011;28860;43.212;27.934;2023-07-31T07:11:56;7.40;;;4.85;;
43256;SDS011;28860;43.212;27.934;2023-07-31T07:14:28;10.52;;;5.63;;
43256;SDS011;28860;43.212;27.934;2023-07-31T07:17:13;13.05;;;5.43;;
43256;SDS011;28860;43.212;27.934;2023-07-31T07:19:42;15.00;;;4.95;;
43256;SDS011;28860;43.212;27.934;2023-07-31T07:22:08;8.75;;;4.63;;
43256;SDS011;28860;43.212;27.934;2023-07-31T07:24:33;8.20;;;4.97;;
43256;SDS011;28860;43.212;27.934;2023-07-31T07:26:59;9.27;;;4.90;;
43256;SDS011;28860;43.212;27.934;2023-07-31T07:29:24;11.52;;;5.22;;
43256;SDS011;28860;43.212;27.934;2023-07-31T07:31:50;11.52;;;5.20;;
43256;SDS011;28860;43.212;27.934;2023-07-31T07:34:16;104.55;;;10.43;;
43256;SDS011;28860;43.212;27.934;2023-07-31T07:36:42;17.15;;;5.35;;
43256;SDS011;28860;43.212;27.934;2023-07-31T07:39:08;7.93;;;5.68;;
43256;SDS011;28860;43.212;27.934;2023-07-31T07:41:35;10.13;;;5.18;;
43256;SDS011;28860;43.212;27.934;2023-07-31T07:44:00;13.77;;;4.85;;
43256;SDS011;28860;43.212;27.934;2023-07-31T07:46:29;7.50;;;5.00;;
43256;SDS011;28860;43.212;27.934;2023-07-31T07:48:55;35.45;;;6.15;;
43256;SDS011;28860;43.212;27.934;2023-07-31T07:51:20;23.10;;;6.45;;
43256;SDS011;28860;43.212;27.934;2023-07-31T07:53:46;10.90;;;5.13;;
43256;SDS011;28860;43.212;27.934;2023-07-31T07:56:11;12.73;;;4.72;;
43256;SDS011;28860;43.212;27.934;2023-07-31T07:58:39;12.52;;;4.50;;
43256;SDS011;28860;43.212;27.934;2023-07-31T08:01:05;9.70;;;5.03;;
43256;SDS011;28860;43.212;27.934;2023-07-31T08:03:30;8.13;;;5.55;;
43256;SDS011;28860;43.212;27.934;2023-07-31T08:05:59;10.38;;;6.18;;
43256;SDS011;28860;43.212;27.934;2023-07-31T08:08:25;8.85;;;5.03;;
43256;SDS011;28860;43.212;27.934;2023-07-31T08:10:51;10.65;;;5.38;;
43256;SDS011;28860;43.212;27.934;2023-07-31T08:13:16;7.45;;;5.15;;
43256;SDS011;28860;43.212;27.934;2023-07-31T08:15:44;8.82;;;5.32;;
43256;SDS011;28860;43.212;27.934;2023-07-31T08:18:11;6.05;;;4.25;;
43256;SDS011;28860;43.212;27.934;2023-07-31T08:20:37;6.15;;;3.90;;
43256;SDS011;28860;43.212;27.934;2023-07-31T08:23:07;7.85;;;4.28;;
43256;SDS011;28860;43.212;27.934;2023-07-31T08:25:38;11.18;;;4.40;;
43256;SDS011;28860;43.212;27.934;2023-07-31T08:28:05;4.95;;;3.70;;
43256;SDS011;28860;43.212;27.934;2023-07-31T08:30:34;8.63;;;4.43;;
43256;SDS011;28860;43.212;27.934;2023-07-31T08:33:00;9.15;;;5.10;;
43256;SDS011;28860;43.212;27.934;2023-07-31T08:35:26;8.27;;;5.10;;
43256;SDS011;28860;43.212;27.934;2023-07-31T08:37:53;8.48;;;5.30;;
43256;SDS011;28860;43.212;27.934;2023-07-31T08:40:19;12.23;;;5.15;;
43256;SDS011;28860;43.212;27.934;2023-07-31T08:42:47;11.27;;;4.63;;
43256;SDS011;28860;43.212;27.934;2023-07-31T08:45:18;9.63;;;4.20;;
43256;SDS011;28860;43.212;27.934;2023-07-31T08:47:45;4.43;;;3.80;;
43256;SDS011;28860;43.212;27.934;2023-07-31T08:50:13;13.93;;;4.20;;
43256;SDS011;28860;43.212;27.934;2023-07-31T08:52:54;5.65;;;3.85;;
43256;SDS011;28860;43.212;27.934;2023-07-31T08:55:20;9.17;;;4.03;;
43256;SDS011;28860;43.212;27.934;2023-07-31T08:58:17;4.78;;;3.30;;
43256;SDS011;28860;43.212;27.934;2023-07-31T09:00:56;5.47;;;3.85;;
43256;SDS011;28860;43.212;27.934;2023-07-31T09:03:24;16.30;;;4.05;;
43256;SDS011;28860;43.212;27.934;2023-07-31T09:06:00;6.63;;;4.07;;
43256;SDS011;28860;43.212;27.934;2023-07-31T09:08:39;6.18;;;3.22;;
43256;SDS011;28860;43.212;27.934;2023-07-31T09:11:21;6.57;;;4.03;;
43256;SDS011;28860;43.212;27.934;2023-07-31T09:14:27;5.88;;;3.42;;
43256;SDS011;28860;43.212;27.934;2023-07-31T09:23:13;6.10;;;3.92;;
43256;SDS011;28860;43.212;27.934;2023-07-31T09:25:43;7.45;;;3.67;;
43256;SDS011;28860;43.212;27.934;2023-07-31T09:28:47;11.25;;;4.38;;
43256;SDS011;28860;43.212;27.934;2023-07-31T09:34:07;7.65;;;5.35;;
43256;SDS011;28860;43.212;27.934;2023-07-31T09:36:42;4.90;;;4.07;;
43256;SDS011;28860;43.212;27.934;2023-07-31T09:39:10;5.13;;;3.83;;
43256;SDS011;28860;43.212;27.934;2023-07-31T09:41:47;11.38;;;3.70;;
43256;SDS011;28860;43.212;27.934;2023-07-31T09:44:20;7.18;;;3.67;;
43256;SDS011;28860;43.212;27.934;2023-07-31T09:46:46;7.93;;;3.83;;
43256;SDS011;28860;43.212;27.934;2023-07-31T09:49:12;4.72;;;3.72;;
43256;SDS011;28860;43.212;27.934;2023-07-31T09:51:40;5.90;;;3.60;;
43256;SDS011;28860;43.212;27.934;2023-07-31T09:54:10;9.23;;;4.30;;
43256;SDS011;28860;43.212;27.934;2023-07-31T09:56:47;7.70;;;3.70;;
43256;SDS011;28860;43.212;27.934;2023-07-31T09:59:20;5.53;;;3.63;;
43256;SDS011;28860;43.212;27.934;2023-07-31T10:04:14;5.70;;;4.57;;
43256;SDS011;28860;43.212;27.934;2023-07-31T10:06:44;8.73;;;4.30;;
43256;SDS011;28860;43.212;27.934;2023-07-31T10:09:12;8.05;;;3.95;;
43256;SDS011;28860;43.212;27.934;2023-07-31T10:11:47;5.85;;;3.58;;
43256;SDS011;28860;43.212;27.934;2023-07-31T10:14:23;3.58;;;3.08;;
43256;SDS011;28860;43.212;27.934;2023-07-31T10:16:51;6.43;;;3.33;;
43256;SDS011;28860;43.212;27.934;2023-07-31T10:19:18;8.13;;;3.60;;
43256;SDS011;28860;43.212;27.934;2023-07-31T10:21:48;11.18;;;3.88;;
43256;SDS011;28860;43.212;27.934;2023-07-31T10:24:16;4.65;;;3.78;;
43256;SDS011;28860;43.212;27.934;2023-07-31T10:26:44;9.73;;;3.80;;
43256;SDS011;28860;43.212;27.934;2023-07-31T10:29:11;4.93;;;3.40;;
43256;SDS011;28860;43.212;27.934;2023-07-31T10:31:40;4.03;;;3.40;;
43256;SDS011;28860;43.212;27.934;2023-07-31T10:34:06;4.85;;;4.05;;
43256;SDS011;28860;43.212;27.934;2023-07-31T10:36:32;6.13;;;4.32;;
43256;SDS011;28860;43.212;27.934;2023-07-31T10:39:06;5.32;;;4.20;;
43256;SDS011;28860;43.212;27.934;2023-07-31T10:42:11;8.52;;;4.22;;
43256;SDS011;28860;43.212;27.934;2023-07-31T10:47:09;5.40;;;4.22;;
43256;SDS011;28860;43.212;27.934;2023-07-31T10:49:37;4.25;;;3.50;;
43256;SDS011;28860;43.212;27.934;2023-07-31T10:52:04;7.25;;;3.70;;
43256;SDS011;28860;43.212;27.934;2023-07-31T10:54:32;6.32;;;4.00;;
43256;SDS011;28860;43.212;27.934;2023-07-31T10:57:18;8.18;;;3.45;;
43256;SDS011;28860;43.212;27.934;2023-07-31T10:59:48;7.15;;;3.33;;
43256;SDS011;28860;43.212;27.934;2023-07-31T11:02:25;9.85;;;4.15;;
43256;SDS011;28860;43.212;27.934;2023-07-31T11:05:10;4.40;;;3.50;;
43256;SDS011;28860;43.212;27.934;2023-07-31T11:07:48;5.20;;;3.63;;
43256;SDS011;28860;43.212;27.934;2023-07-31T11:10:18;4.88;;;3.55;;
43256;SDS011;28860;43.212;27.934;2023-07-31T11:12:46;8.75;;;3.40;;
43256;SDS011;28860;43.212;27.934;2023-07-31T11:15:12;9.35;;;4.32;;
43256;SDS011;28860;43.212;27.934;2023-07-31T11:17:39;6.10;;;3.60;;
43256;SDS011;28860;43.212;27.934;2023-07-31T11:20:10;9.07;;;4.18;;
43256;SDS011;28860;43.212;27.934;2023-07-31T11:22:48;4.20;;;3.63;;
43256;SDS011;28860;43.212;27.934;2023-07-31T11:25:17;4.22;;;3.22;;
43256;SDS011;28860;43.212;27.934;2023-07-31T11:27:43;5.72;;;3.50;;
43256;SDS011;28860;43.212;27.934;2023-07-31T11:30:10;11.55;;;3.95;;
43256;SDS011;28860;43.212;27.934;2023-07-31T11:32:36;5.90;;;3.72;;
43256;SDS011;28860;43.212;27.934;2023-07-31T11:35:02;4.03;;;3.58;;
43256;SDS011;28860;43.212;27.934;2023-07-31T11:37:40;5.72;;;3.55;;
43256;SDS011;28860;43.212;27.934;2023-07-31T11:40:07;2.85;;;2.58;;
43256;SDS011;28860;43.212;27.934;2023-07-31T11:42:36;4.72;;;3.25;;
43256;SDS011;28860;43.212;27.934;2023-07-31T11:45:02;5.65;;;3.15;;
43256;SDS011;28860;43.212;27.934;2023-07-31T11:47:35;3.88;;;2.90;;
43256;SDS011;28860;43.212;27.934;2023-07-31T11:50:02;4.85;;;3.10;;
43256;SDS011;28860;43.212;27.934;2023-07-31T11:52:29;9.95;;;3.50;;
43256;SDS011;28860;43.212;27.934;2023-07-31T11:55:01;5.63;;;3.08;;
43256;SDS011;28860;43.212;27.934;2023-07-31T11:57:27;8.18;;;3.53;;
43256;SDS011;28860;43.212;27.934;2023-07-31T11:59:54;9.90;;;4.10;;
43256;SDS011;28860;43.212;27.934;2023-07-31T12:02:21;7.60;;;3.15;;
43256;SDS011;28860;43.212;27.934;2023-07-31T12:04:53;8.30;;;3.00;;
43256;SDS011;28860;43.212;27.934;2023-07-31T12:07:20;7.18;;;3.17;;
43256;SDS011;28860;43.212;27.934;2023-07-31T12:09:53;5.32;;;3.25;;
43256;SDS011;28860;43.212;27.934;2023-07-31T12:12:20;9.48;;;3.97;;
43256;SDS011;28860;43.212;27.934;2023-07-31T12:14:47;5.68;;;3.80;;
43256;SDS011;28860;43.212;27.934;2023-07-31T12:17:13;6.55;;;4.05;;
43256;SDS011;28860;43.212;27.934;2023-07-31T12:19:40;6.07;;;3.95;;
43256;SDS011;28860;43.212;27.934;2023-07-31T12:22:12;4.97;;;3.85;;
43256;SDS011;28860;43.212;27.934;2023-07-31T12:24:44;6.82;;;3.78;;
43256;SDS011;28860;43.212;27.934;2023-07-31T12:27:13;7.22;;;3.80;;
43256;SDS011;28860;43.212;27.934;2023-07-31T12:29:41;11.35;;;4.60;;
43256;SDS011;28860;43.212;27.934;2023-07-31T12:32:23;9.73;;;4.28;;
43256;SDS011;28860;43.212;27.934;2023-07-31T12:34:54;17.17;;;4.72;;
43256;SDS011;28860;43.212;27.934;2023-07-31T12:37:24;11.02;;;4.00;;
43256;SDS011;28860;43.212;27.934;2023-07-31T12:39:50;7.80;;;4.20;;
43256;SDS011;28860;43.212;27.934;2023-07-31T12:42:17;13.55;;;4.47;;
43256;SDS011;28860;43.212;27.934;2023-07-31T12:44:45;10.73;;;4.75;;
43256;SDS011;28860;43.212;27.934;2023-07-31T12:47:13;20.90;;;5.00;;
43256;SDS011;28860;43.212;27.934;2023-07-31T12:49:40;9.15;;;4.07;;
43256;SDS011;28860;43.212;27.934;2023-07-31T12:52:06;8.25;;;4.40;;
43256;SDS011;28860;43.212;27.934;2023-07-31T12:54:31;5.13;;;4.38;;
43256;SDS011;28860;43.212;27.934;2023-07-31T12:56:57;9.30;;;4.43;;
43256;SDS011;28860;43.212;27.934;2023-07-31T12:59:25;10.32;;;3.95;;
43256;SDS011;28860;43.212;27.934;2023-07-31T13:01:52;4.35;;;3.80;;
43256;SDS011;28860;43.212;27.934;2023-07-31T13:04:18;6.22;;;4.30;;
43256;SDS011;28860;43.212;27.934;2023-07-31T13:06:44;11.52;;;4.10;;
43256;SDS011;28860;43.212;27.934;2023-07-31T13:09:10;5.32;;;4.00;;
43256;SDS011;28860;43.212;27.934;2023-07-31T13:11:36;6.07;;;4.07;;
43256;SDS011;28860;43.212;27.934;2023-07-31T13:14:01;7.75;;;4.30;;
43256;SDS011;28860;43.212;27.934;2023-07-31T13:16:27;3.63;;;3.33;;
43256;SDS011;28860;43.212;27.934;2023-07-31T13:18:54;4.43;;;3.33;;
43256;SDS011;28860;43.212;27.934;2023-07-31T13:21:22;4.57;;;3.38;;
43256;SDS011;28860;43.212;27.934;2023-07-31T13:23:51;6.30;;;3.35;;
43256;SDS011;28860;43.212;27.934;2023-07-31T13:26:19;3.75;;;3.10;;
43256;SDS011;28860;43.212;27.934;2023-07-31T13:28:44;12.32;;;3.28;;
43256;SDS011;28860;43.212;27.934;2023-07-31T13:31:13;5.38;;;2.88;;
43256;SDS011;28860;43.212;27.934;2023-07-31T13:33:41;6.32;;;3.10;;
43256;SDS011;28860;43.212;27.934;2023-07-31T13:36:07;4.38;;;3.38;;
43256;SDS011;28860;43.212;27.934;2023-07-31T13:38:36;4.47;;;3.15;;
43256;SDS011;28860;43.212;27.934;2023-07-31T13:41:04;5.72;;;3.35;;
43256;SDS011;28860;43.212;27.934;2023-07-31T13:43:30;6.50;;;3.38;;
43256;SDS011;28860;43.212;27.934;2023-07-31T13:45:56;4.72;;;3.50;;
43256;SDS011;28860;43.212;27.934;2023-07-31T13:48:24;4.68;;;3.53;;
43256;SDS011;28860;43.212;27.934;2023-07-31T13:50:49;6.57;;;3.22;;
43256;SDS011;28860;43.212;27.934;2023-07-31T13:53:15;5.82;;;3.30;;
43256;SDS011;28860;43.212;27.934;2023-07-31T13:55:41;4.03;;;3.10;;
43256;SDS011;28860;43.212;27.934;2023-07-31T13:58:10;5.80;;;3.63;;
43256;SDS011;28860;43.212;27.934;2023-07-31T14:00:39;10.68;;;4.13;;
43256;SDS011;28860;43.212;27.934;2023-07-31T14:03:07;4.47;;;3.17;;
43256;SDS011;28860;43.212;27.934;2023-07-31T14:05:33;5.90;;;3.80;;
43256;SDS011;28860;43.212;27.934;2023-07-31T14:07:59;8.85;;;4.30;;
43256;SDS011;28860;43.212;27.934;2023-07-31T14:10:25;5.40;;;4.00;;
43256;SDS011;28860;43.212;27.934;2023-07-31T14:12:53;4.85;;;4.07;;
43256;SDS011;28860;43.212;27.934;2023-07-31T14:15:18;5.32;;;4.03;;
43256;SDS011;28860;43.212;27.934;2023-07-31T14:17:44;6.13;;;4.13;;
43256;SDS011;28860;43.212;27.934;2023-07-31T14:20:10;6.00;;;4.15;;
43256;SDS011;28860;43.212;27.934;2023-07-31T14:22:36;4.28;;;3.88;;
43256;SDS011;28860;43.212;27.934;2023-07-31T14:25:05;5.28;;;4.13;;
43256;SDS011;28860;43.212;27.934;2023-07-31T14:27:31;5.90;;;4.40;;
43256;SDS011;28860;43.212;27.934;2023-07-31T14:29:56;5.68;;;4.10;;
43256;SDS011;28860;43.212;27.934;2023-07-31T14:32:22;5.22;;;4.30;;
43256;SDS011;28860;43.212;27.934;2023-07-31T14:34:50;4.32;;;3.78;;
43256;SDS011;28860;43.212;27.934;2023-07-31T14:37:16;6.45;;;3.80;;
43256;SDS011;28860;43.212;27.934;2023-07-31T14:39:42;4.90;;;4.15;;
43256;SDS011;28860;43.212;27.934;2023-07-31T14:42:08;4.93;;;3.97;;
43256;SDS011;28860;43.212;27.934;2023-07-31T14:44:34;3.97;;;3.58;;
43256;SDS011;28860;43.212;27.934;2023-07-31T14:47:00;4.82;;;4.00;;
43256;SDS011;28860;43.212;27.934;2023-07-31T14:49:26;7.88;;;3.83;;
43256;SDS011;28860;43.212;27.934;2023-07-31T14:51:53;7.90;;;3.95;;
43256;SDS011;28860;43.212;27.934;2023-07-31T14:54:19;6.20;;;3.85;;
43256;SDS011;28860;43.212;27.934;2023-07-31T14:56:44;7.13;;;4.10;;
43256;SDS011;28860;43.212;27.934;2023-07-31T14:59:10;4.10;;;3.70;;